Time;durP1;ratioP1;P1;durP2;ratioP2;P2;SDS_P1;SDS_P2;PMS_P1;PMS_P2;Temp;Humidity;BMP_temperature;BMP_pressure;BME280_temperature;BME280_humidity;BME280_pressure;Samples;Min_cycle;Max_cycle;Signal;HPM_P1;HPM_P2
2022/04/30 00:00:58;;;;;;;6.88;3.65;;;10.30;82.80;;;;;;5040257;28;20159;-70
2022/04/30 00:04:02;;;;;;;4.45;3.10;;;10.20;82.90;;;;;;5052567;28;20048;-70
2022/04/30 00:07:07;;;;;;;4.25;2.72;;;10.20;84.60;;;;;;5051435;28;20060;-70
2022/04/30 00:10:11;;;;;;;3.85;3.05;;;10.10;84.20;;;;;;5052551;28;20510;-70
2022/04/30 00:13:15;;;;;;;6.55;3.50;;;10.10;84.00;;;;;;5052291;28;20341;-69
2022/04/30 00:16:19;;;;;;;5.63;2.90;;;10.10;86.10;;;;;;5052042;28;20056;-70
2022/04/30 00:19:23;;;;;;;6.30;3.10;;;10.00;84.30;;;;;;5051858;28;20402;-70
2022/04/30 00:22:27;;;;;;;4.28;3.13;;;10.10;85.20;;;;;;5052376;28;20391;-70
2022/04/30 00:25:31;;;;;;;6.18;2.97;;;10.00;85.60;;;;;;5051926;28;20044;-70
2022/04/30 00:28:35;;;;;;;6.35;3.10;;;9.90;86.10;;;;;;5039415;28;20841;-70
2022/04/30 00:31:40;;;;;;;5.38;3.42;;;9.90;85.30;;;;;;5052202;28;20516;-70
2022/04/30 00:34:45;;;;;;;4.43;2.97;;;9.90;86.80;;;;;;5050982;28;20062;-69
2022/04/30 00:37:48;;;;;;;4.40;3.05;;;9.90;87.50;;;;;;5051701;28;20025;-70
2022/04/30 00:40:52;;;;;;;4.93;2.70;;;9.80;88.20;;;;;;5051532;28;20037;-70
2022/04/30 00:43:56;;;;;;;6.45;3.65;;;9.70;87.30;;;;;;5051495;28;20048;-70
2022/04/30 00:47:00;;;;;;;6.70;2.88;;;9.90;85.20;;;;;;5051428;28;20364;-70
2022/04/30 00:50:05;;;;;;;4.80;2.95;;;10.00;85.40;;;;;;5051093;28;20491;-70
2022/04/30 00:53:11;;;;;;;6.57;3.30;;;9.90;88.20;;;;;;5051328;28;20499;-70
2022/04/30 00:56:21;;;;;;;6.63;3.30;;;9.80;87.40;;;;;;5050947;28;20045;-70
2022/04/30 00:59:27;;;;;;;4.25;3.38;;;9.80;86.90;;;;;;5050910;28;20499;-70
2022/04/30 01:02:32;;;;;;;6.30;4.03;;;9.80;88.30;;;;;;5051290;28;20041;-70
2022/04/30 01:06:15;;;;;;;6.72;3.40;;;9.70;88.20;;;;;;4989130;28;20026;-70
2022/04/30 01:09:25;;;;;;;6.05;3.65;;;9.60;90.20;;;;;;4989423;28;20502;-70
2022/04/30 01:12:30;;;;;;;5.35;3.10;;;9.50;90.30;;;;;;5038431;28;20468;-70
2022/04/30 01:15:35;;;;;;;7.47;3.15;;;9.60;90.10;;;;;;5051103;28;20032;-70
2022/04/30 01:18:39;;;;;;;4.28;3.13;;;9.60;90.70;;;;;;5050997;28;20041;-70
2022/04/30 01:21:45;;;;;;;7.93;3.33;;;9.60;91.20;;;;;;5051188;28;20028;-70
2022/04/30 01:24:52;;;;;;;4.97;3.42;;;9.60;90.70;;;;;;5050981;28;20460;-70
2022/04/30 01:27:59;;;;;;;6.50;3.53;;;9.60;90.50;;;;;;5050685;28;20041;-70
2022/04/30 01:37:22;;;;;;;4.57;3.33;;;9.60;90.60;;;;;;5050850;28;20479;-70
2022/04/30 01:37:50;;;;;;;6.78;3.40;;;9.60;90.90;;;;;;5049892;28;20060;-70
2022/04/30 01:40:54;;;;;;;4.60;3.15;;;9.60;91.40;;;;;;5050174;28;20048;-70
2022/04/30 01:43:59;;;;;;;4.32;3.17;;;9.70;90.40;;;;;;5050517;28;20037;-70
2022/04/30 01:47:04;;;;;;;6.38;3.38;;;9.80;89.40;;;;;;5050491;28;20511;-70
2022/04/30 01:50:09;;;;;;;6.78;3.40;;;9.90;90.40;;;;;;5050299;28;20033;-70
2022/04/30 01:53:13;;;;;;;6.82;3.53;;;9.80;90.40;;;;;;5050597;28;20044;-70
2022/04/30 01:56:17;;;;;;;4.07;3.30;;;9.80;90.00;;;;;;5050250;28;20041;-70
2022/04/30 01:59:41;;;;;;;4.97;3.00;;;9.80;90.90;;;;;;5049620;28;20049;-70
2022/04/30 02:02:47;;;;;;;7.97;3.47;;;9.70;91.00;;;;;;5049833;28;20040;-70
2022/04/30 02:05:51;;;;;;;5.32;3.75;;;9.60;91.10;;;;;;5050202;28;20463;-70
2022/04/30 02:08:56;;;;;;;6.88;3.50;;;9.60;91.70;;;;;;5050622;28;20476;-70
2022/04/30 02:12:01;;;;;;;6.30;3.05;;;9.60;92.20;;;;;;5052391;28;20369;-70
2022/04/30 02:15:05;;;;;;;6.05;2.90;;;9.70;91.60;;;;;;5057212;28;20041;-70
2022/04/30 02:18:13;;;;;;;5.20;3.38;;;9.60;91.60;;;;;;5056754;28;20368;-70
2022/04/30 02:21:20;;;;;;;4.53;3.08;;;9.70;90.80;;;;;;5057129;28;20451;-70
2022/04/30 02:24:27;;;;;;;5.00;3.40;;;9.90;91.00;;;;;;5056718;28;20033;-70
2022/04/30 02:27:32;;;;;;;4.65;3.13;;;9.80;91.40;;;;;;5056519;28;20049;-70
2022/04/30 02:30:37;;;;;;;6.60;3.35;;;9.60;91.80;;;;;;5056840;28;20041;-69
2022/04/30 02:33:42;;;;;;;4.88;3.45;;;9.50;92.60;;;;;;5057306;28;20041;-70
2022/04/30 02:36:46;;;;;;;6.55;3.70;;;9.40;93.00;;;;;;5056489;28;20045;-69
2022/04/30 02:39:52;;;;;;;6.35;3.47;;;9.40;92.60;;;;;;5056598;28;20049;-70
2022/04/30 02:43:07;;;;;;;4.43;3.15;;;9.30;93.80;;;;;;5056657;28;20037;-70
2022/04/30 02:46:13;;;;;;;5.13;3.47;;;9.20;93.70;;;;;;5056453;28;20041;-70
2022/04/30 02:49:18;;;;;;;9.57;3.83;;;9.10;94.20;;;;;;5056477;28;20040;-70
2022/04/30 02:52:22;;;;;;;5.78;3.78;;;9.10;94.90;;;;;;5056578;28;20037;-69
2022/04/30 02:55:27;;;;;;;5.00;3.47;;;8.90;95.30;;;;;;5056173;28;20041;-70
2022/04/30 03:01:53;;;;;;;6.40;3.88;;;8.90;95.40;;;;;;5056505;28;20040;-70
2022/04/30 03:05:20;;;;;;;7.90;4.38;;;8.90;96.10;;;;;;5056706;28;20044;-70
2022/04/30 03:08:26;;;;;;;6.45;3.88;;;8.90;96.80;;;;;;5056487;28;20217;-70
2022/04/30 03:11:31;;;;;;;9.20;4.40;;;9.00;95.60;;;;;;5056554;28;20033;-70
2022/04/30 03:14:35;;;;;;;7.93;4.03;;;9.00;97.00;;;;;;5056446;28;20029;-70
2022/04/30 03:24:16;;;;;;;6.38;4.03;;;8.80;98.30;;;;;;5053476;28;20036;-69
2022/04/30 03:27:20;;;;;;;5.78;4.30;;;8.60;99.50;;;;;;5052549;28;20456;-69
2022/04/30 03:30:24;;;;;;;7.60;3.90;;;8.50;99.90;;;;;;5053030;28;20048;-70
2022/04/30 03:33:28;;;;;;;5.93;3.97;;;8.50;99.90;;;;;;5053135;28;20040;-70
2022/04/30 03:36:33;;;;;;;6.80;3.65;;;8.50;99.90;;;;;;5052662;28;20041;-70
2022/04/30 03:39:36;;;;;;;6.28;4.05;;;8.60;99.90;;;;;;5052782;28;20037;-70
2022/04/30 03:42:41;;;;;;;9.75;4.15;;;8.60;99.90;;;;;;5052856;28;20041;-70
2022/04/30 03:45:46;;;;;;;7.68;4.38;;;8.50;99.90;;;;;;5052487;28;20029;-70
2022/04/30 03:48:53;;;;;;;5.57;4.13;;;8.60;99.90;;;;;;5052841;28;20345;-70
2022/04/30 03:51:57;;;;;;;8.90;4.10;;;8.60;99.90;;;;;;5052697;28;20033;-70
2022/04/30 03:55:02;;;;;;;9.48;3.72;;;8.60;99.90;;;;;;5052737;28;20040;-70
2022/04/30 03:58:06;;;;;;;9.88;4.55;;;8.50;99.90;;;;;;5052411;28;20029;-69
2022/04/30 04:01:11;;;;;;;8.73;4.15;;;8.40;99.90;;;;;;5052068;28;20490;-70
2022/04/30 04:04:15;;;;;;;7.38;3.95;;;8.30;99.90;;;;;;5052719;28;20029;-70
2022/04/30 04:07:20;;;;;;;5.82;4.10;;;8.20;99.90;;;;;;5052196;28;20546;-70
2022/04/30 04:10:24;;;;;;;8.15;4.90;;;8.20;99.90;;;;;;5052229;28;20041;-69
2022/04/30 04:20:14;;;;;;;8.07;4.90;;;8.00;99.90;;;;;;5051653;28;20381;-70
2022/04/30 04:23:18;;;;;;;5.70;4.40;;;8.00;99.90;;;;;;5051969;28;20399;-69
2022/04/30 04:26:22;;;;;;;6.65;4.28;;;8.00;99.90;;;;;;5051802;28;20037;-69
2022/04/30 04:29:27;;;;;;;8.02;5.03;;;8.00;99.90;;;;;;5052099;28;20041;-70
2022/04/30 04:32:30;;;;;;;9.38;4.28;;;8.10;99.90;;;;;;5051934;28;20040;-69
2022/04/30 04:35:34;;;;;;;6.72;4.60;;;8.20;99.90;;;;;;5050758;28;20037;-69
2022/04/30 04:38:39;;;;;;;7.05;4.88;;;8.30;99.90;;;;;;5051836;28;20044;-69
2022/04/30 04:41:43;;;;;;;7.43;4.60;;;8.40;99.90;;;;;;5051744;28;20041;-69
2022/04/30 04:44:48;;;;;;;8.10;5.45;;;8.40;99.90;;;;;;5051812;28;20040;-70
2022/04/30 04:47:52;;;;;;;6.47;4.70;;;8.40;99.90;;;;;;5051434;28;20397;-69
2022/04/30 04:50:56;;;;;;;6.47;4.47;;;8.40;99.90;;;;;;5051576;28;20033;-69
2022/04/30 04:54:03;;;;;;;9.27;5.03;;;8.30;99.90;;;;;;5051271;28;20045;-69
2022/04/30 04:57:07;;;;;;;9.98;4.93;;;8.10;99.90;;;;;;5038825;28;20045;-69
2022/04/30 05:00:12;;;;;;;7.65;4.32;;;8.20;99.90;;;;;;5050975;28;20856;-69
2022/04/30 05:03:16;;;;;;;7.55;4.80;;;8.20;99.90;;;;;;5051366;28;20045;-69
2022/04/30 05:06:20;;;;;;;12.20;4.95;;;8.40;99.90;;;;;;5050960;28;20041;-69
2022/04/30 05:09:25;;;;;;;9.98;4.45;;;9.60;99.90;;;;;;5051118;28;20047;-70
2022/04/30 05:12:29;;;;;;;10.55;4.53;;;11.20;99.90;;;;;;5038816;28;20029;-70
2022/04/30 05:15:33;;;;;;;5.82;4.22;;;14.10;99.90;;;;;;5051360;28;20044;-70
2022/04/30 05:18:37;;;;;;;4.90;3.33;;;15.70;97.20;;;;;;5050650;28;20412;-69
2022/04/30 05:21:41;;;;;;;5.63;3.65;;;16.60;94.10;;;;;;5051236;28;20048;-70
2022/04/30 05:24:45;;;;;;;9.50;3.88;;;18.00;92.90;;;;;;5051163;28;20446;-69
2022/04/30 05:27:50;;;;;;;5.60;3.22;;;18.90;90.90;;;;;;5050373;28;20032;-70
2022/04/30 05:30:54;;;;;;;8.98;3.78;;;19.30;88.90;;;;;;5050846;28;20051;-70
2022/04/30 05:33:58;;;;;;;6.45;3.42;;;19.80;88.00;;;;;;5050774;28;20119;-70
2022/04/30 05:37:03;;;;;;;8.07;3.30;;;21.40;84.70;;;;;;5050540;28;20052;-70
2022/04/30 05:40:08;;;;;;;4.90;2.92;;;21.50;80.20;;;;;;5049980;28;20044;-70
2022/04/30 05:43:12;;;;;;;3.75;2.85;;;21.40;78.80;;;;;;5050377;28;20048;-70
2022/04/30 05:46:16;;;;;;;10.65;3.40;;;20.70;81.20;;;;;;5049910;28;20506;-71
2022/04/30 05:49:20;;;;;;;5.03;3.40;;;19.00;80.10;;;;;;5050798;28;20036;-71
2022/04/30 05:52:24;;;;;;;7.65;3.40;;;15.40;88.70;;;;;;5050590;28;20051;-71
2022/04/30 05:55:28;;;;;;;6.20;3.70;;;15.30;91.50;;;;;;5050619;28;20395;-70
2022/04/30 05:58:32;;;;;;;9.80;4.80;;;17.50;90.30;;;;;;5050172;28;20040;-70
2022/04/30 06:01:36;;;;;;;11.27;7.15;;;16.80;90.60;;;;;;5050065;28;20052;-71
2022/04/30 06:04:40;;;;;;;13.13;6.90;;;19.50;86.90;;;;;;5050107;28;20048;-70
2022/04/30 06:07:44;;;;;;;12.15;6.13;;;20.40;84.00;;;;;;5050087;28;20154;-71
2022/04/30 06:10:49;;;;;;;9.80;5.43;;;21.60;82.50;;;;;;5050420;28;20048;-71
2022/04/30 06:13:54;;;;;;;9.68;5.88;;;22.80;79.40;;;;;;5050320;28;20507;-72
2022/04/30 06:16:59;;;;;;;11.18;7.18;;;21.80;78.60;;;;;;5049841;28;20080;-71
2022/04/30 06:20:03;;;;;;;10.48;5.90;;;22.30;79.60;;;;;;5050008;28;20068;-71
2022/04/30 06:23:07;;;;;;;8.48;5.63;;;23.10;76.20;;;;;;5050311;28;20040;-71
2022/04/30 06:26:11;;;;;;;12.10;5.13;;;23.00;76.10;;;;;;5050221;28;20036;-71
2022/04/30 06:29:15;;;;;;;9.25;6.13;;;21.30;73.90;;;;;;5050310;28;20056;-71
2022/04/30 06:32:19;;;;;;;7.80;4.55;;;19.70;79.50;;;;;;5050591;28;20044;-71
2022/04/30 06:35:23;;;;;;;8.50;5.68;;;21.30;78.50;;;;;;5050283;28;20064;-71
2022/04/30 06:38:27;;;;;;;12.85;8.02;;;19.80;79.60;;;;;;5050203;28;20036;-71
2022/04/30 06:41:31;;;;;;;11.13;5.85;;;19.10;81.20;;;;;;5049339;28;20040;-71
2022/04/30 06:44:35;;;;;;;16.05;10.32;;;20.60;78.60;;;;;;5049889;28;20398;-71
2022/04/30 06:47:40;;;;;;;26.35;13.52;;;21.70;76.40;;;;;;5049791;28;20048;-71
2022/04/30 06:50:45;;;;;;;16.15;10.02;;;20.60;76.80;;;;;;5049722;28;20395;-71
2022/04/30 06:57:12;;;;;;;11.90;6.80;;;19.00;82.00;;;;;;5049926;28;20040;-71
2022/04/30 07:03:39;;;;;;;9.30;5.13;;;20.10;82.60;;;;;;5053584;28;20036;-71
2022/04/30 07:06:46;;;;;;;7.40;5.28;;;22.20;77.50;;;;;;5053281;28;20044;-72
2022/04/30 07:09:51;;;;;;;12.35;5.70;;;23.80;74.80;;;;;;5053600;28;20494;-72
2022/04/30 07:12:54;;;;;;;8.30;5.65;;;24.40;73.20;;;;;;5053117;28;20052;-72
2022/04/30 07:15:59;;;;;;;9.90;5.30;;;22.80;73.50;;;;;;5053110;28;20598;-72
2022/04/30 07:19:03;;;;;;;8.50;4.88;;;21.70;78.40;;;;;;5053243;28;20040;-72
2022/04/30 07:22:07;;;;;;;6.97;4.22;;;23.80;76.00;;;;;;5053298;28;20056;-71
2022/04/30 07:25:11;;;;;;;7.60;4.50;;;25.90;72.70;;;;;;5053177;28;20403;-72
2022/04/30 07:28:15;;;;;;;8.68;5.18;;;26.00;70.50;;;;;;5052195;28;20044;-72
2022/04/30 07:31:19;;;;;;;7.57;4.30;;;26.80;68.60;;;;;;5042040;28;20057;-71
2022/04/30 07:34:23;;;;;;;6.88;4.07;;;27.40;68.60;;;;;;5038800;28;20039;-71
2022/04/30 07:37:27;;;;;;;3.40;2.70;;;26.70;68.00;;;;;;5047953;28;20060;-72
2022/04/30 07:40:31;;;;;;;4.05;2.92;;;27.40;63.00;;;;;;5053093;28;20128;-72
2022/04/30 07:43:35;;;;;;;4.53;2.90;;;27.00;62.10;;;;;;5053792;28;20052;-72
2022/04/30 07:46:39;;;;;;;6.03;3.30;;;25.00;65.70;;;;;;5052935;28;20056;-71
2022/04/30 07:49:44;;;;;;;5.28;3.10;;;25.70;64.90;;;;;;5041513;28;20054;-72
2022/04/30 07:52:49;;;;;;;3.28;2.78;;;27.10;63.70;;;;;;5044230;28;20490;-71
2022/04/30 07:55:54;;;;;;;2.97;2.42;;;26.70;61.40;;;;;;5052434;28;20048;-72
2022/04/30 07:58:58;;;;;;;4.30;2.70;;;28.60;59.10;;;;;;5043249;28;20048;-72
2022/04/30 08:02:04;;;;;;;9.20;2.72;;;30.20;58.50;;;;;;5052619;28;20053;-72
2022/04/30 08:05:08;;;;;;;6.22;2.75;;;27.60;58.50;;;;;;5052142;28;20044;-71
2022/04/30 08:08:13;;;;;;;3.25;2.25;;;29.30;57.30;;;;;;5050934;28;20040;-72
2022/04/30 08:11:17;;;;;;;4.43;2.67;;;31.00;57.30;;;;;;5048813;28;20044;-72
2022/04/30 08:14:21;;;;;;;6.13;2.30;;;32.40;55.80;;;;;;5049858;28;20047;-72
2022/04/30 08:17:27;;;;;;;4.70;2.08;;;33.20;54.80;;;;;;5042821;28;20069;-72
2022/04/30 08:20:31;;;;;;;3.90;2.10;;;33.30;53.30;;;;;;5044341;28;20048;-72
2022/04/30 08:23:36;;;;;;;4.10;2.50;;;32.90;52.10;;;;;;5051058;28;20048;-72
2022/04/30 08:26:40;;;;;;;3.78;2.30;;;33.30;53.80;;;;;;5031735;28;20048;-72
2022/04/30 08:29:44;;;;;;;3.72;2.17;;;33.60;53.70;;;;;;5032131;28;20052;-72
2022/04/30 08:32:48;;;;;;;5.53;2.20;;;32.80;53.10;;;;;;5048837;28;20064;-72
2022/04/30 08:35:53;;;;;;;3.90;2.30;;;33.80;52.40;;;;;;5044537;28;20052;-72
2022/04/30 08:38:58;;;;;;;2.88;2.22;;;31.90;50.70;;;;;;5027662;28;20397;-72
2022/04/30 08:42:06;;;;;;;6.18;2.60;;;26.00;53.20;;;;;;5042861;28;20495;-72
2022/04/30 08:45:11;;;;;;;5.70;2.42;;;28.10;57.10;;;;;;5040367;28;20506;-72
2022/04/30 08:48:16;;;;;;;3.42;2.38;;;31.70;55.80;;;;;;5044075;28;20483;-72
2022/04/30 08:51:20;;;;;;;4.85;2.35;;;34.20;54.00;;;;;;5043296;28;20100;-71
2022/04/30 08:54:24;;;;;;;6.43;2.22;;;34.50;51.80;;;;;;5045971;28;20384;-72
2022/04/30 08:57:28;;;;;;;3.75;2.05;;;32.40;52.00;;;;;;5042486;28;20040;-71
2022/04/30 09:00:41;;;;;;;3.70;2.38;;;32.50;51.10;;;;;;5032739;28;20048;-71
2022/04/30 09:03:47;;;;;;;4.05;2.70;;;29.50;50.40;;;;;;5032017;28;20040;-69
2022/04/30 09:06:55;;;;;;;3.58;2.10;;;29.00;53.30;;;;;;5032549;28;20471;-69
2022/04/30 09:10:05;;;;;;;6.40;2.63;;;29.40;51.80;;;;;;5032382;28;20380;-71
2022/04/30 09:13:15;;;;;;;5.47;2.55;;;28.00;53.40;;;;;;5034229;28;20040;-69
2022/04/30 09:16:26;;;;;;;3.05;2.17;;;28.30;53.10;;;;;;5026850;28;20795;-71
2022/04/30 09:19:36;;;;;;;4.15;2.20;;;31.20;50.90;;;;;;5052030;28;20542;-71
2022/04/30 09:22:40;;;;;;;2.42;1.90;;;31.10;50.90;;;;;;5045936;28;20059;-71
2022/04/30 09:25:56;;;;;;;3.33;1.90;;;31.50;50.70;;;;;;5036959;28;20036;-71
2022/04/30 09:29:02;;;;;;;3.78;2.00;;;30.90;48.90;;;;;;5044157;28;20402;-74
2022/04/30 09:32:07;;;;;;;2.35;1.95;;;30.90;52.10;;;;;;5043553;28;20059;-73
2022/04/30 09:38:44;;;;;;;3.85;2.05;;;32.10;51.60;;;;;;5032018;28;20048;-69
2022/04/30 09:42:01;;;;;;;4.57;2.92;;;29.50;48.60;;;;;;5048990;28;20044;-70
2022/04/30 09:45:06;;;;;;;4.95;2.75;;;30.20;52.00;;;;;;5013713;28;20060;-69
2022/04/30 09:54:59;;;;;;;3.90;2.30;;;28.50;52.20;;;;;;5036512;28;20036;-72
2022/04/30 09:58:04;;;;;;;3.70;2.17;;;32.90;52.60;;;;;;5041798;28;20044;-73
2022/04/30 10:01:11;;;;;;;2.88;1.98;;;35.40;51.70;;;;;;5037304;28;20628;-69
2022/04/30 10:04:17;;;;;;;2.97;2.10;;;34.20;50.60;;;;;;5031781;28;20060;-69
2022/04/30 10:07:24;;;;;;;4.57;2.40;;;33.70;48.60;;;;;;5018982;28;20049;-69
2022/04/30 10:10:46;;;;;;;3.88;2.45;;;30.50;48.40;;;;;;5032018;28;20045;-69
2022/04/30 10:14:09;;;;;;;6.18;2.47;;;28.60;49.80;;;;;;5031876;28;20388;-70
2022/04/30 10:17:16;;;;;;;5.03;2.05;;;30.50;51.60;;;;;;5031942;28;20052;-69
2022/04/30 10:20:30;;;;;;;3.38;1.90;;;33.70;50.20;;;;;;5031822;28;20052;-70
2022/04/30 10:23:34;;;;;;;2.25;1.67;;;32.90;50.40;;;;;;5030308;28;20472;-70
2022/04/30 10:26:39;;;;;;;3.28;1.75;;;36.00;49.70;;;;;;5028968;28;20044;-70
2022/04/30 10:29:57;;;;;;;2.67;2.00;;;38.60;49.90;;;;;;5030326;28;20499;-73
2022/04/30 10:33:02;;;;;;;3.08;2.20;;;38.00;46.10;;;;;;5031817;28;20048;-72
2022/04/30 10:36:10;;;;;;;2.92;1.83;;;36.10;46.90;;;;;;5034531;28;20040;-69
2022/04/30 10:39:19;;;;;;;3.20;2.00;;;35.50;46.30;;;;;;5034931;28;20060;-72
2022/04/30 10:42:41;;;;;;;7.95;2.00;;;35.90;46.00;;;;;;5034365;28;20052;-72
2022/04/30 10:45:45;;;;;;;4.63;2.60;;;35.40;46.10;;;;;;5034122;28;20044;-70
2022/04/30 10:48:50;;;;;;;4.15;1.70;;;35.50;47.50;;;;;;5033313;28;20044;-73
2022/04/30 10:51:55;;;;;;;3.10;2.00;;;32.50;46.30;;;;;;5011300;28;20053;-72
2022/04/30 10:55:01;;;;;;;2.78;1.83;;;32.70;46.40;;;;;;5034078;28;20495;-70
2022/04/30 10:58:05;;;;;;;2.80;1.70;;;35.00;48.00;;;;;;5033521;28;20048;-70
2022/04/30 11:01:17;;;;;;;2.10;1.63;;;37.40;45.20;;;;;;5033686;28;20515;-70
2022/04/30 11:04:23;;;;;;;3.08;1.73;;;38.20;46.20;;;;;;5033933;28;20037;-73
2022/04/30 11:07:29;;;;;;;3.53;1.85;;;37.60;45.30;;;;;;5033312;28;20049;-70
2022/04/30 11:10:34;;;;;;;7.47;1.63;;;38.60;45.90;;;;;;5034151;28;20531;-70
2022/04/30 11:13:38;;;;;;;2.72;1.65;;;40.20;44.60;;;;;;5034082;28;20053;-72
2022/04/30 11:16:46;;;;;;;3.65;1.80;;;40.40;44.20;;;;;;5034604;28;20060;-72
2022/04/30 11:19:50;;;;;;;3.97;2.20;;;40.40;44.00;;;;;;5033751;28;20087;-73
2022/04/30 11:23:00;;;;;;;3.35;1.80;;;39.70;43.80;;;;;;5034479;28;20048;-73
2022/04/30 11:26:15;;;;;;;4.05;1.75;;;31.60;48.20;;;;;;5032934;28;20506;-72
2022/04/30 11:29:20;;;;;;;4.07;2.13;;;30.60;49.30;;;;;;5034262;28;20491;-73
2022/04/30 11:32:27;;;;;;;2.88;1.90;;;28.90;49.90;;;;;;5033730;28;20049;-72
2022/04/30 11:35:34;;;;;;;6.00;2.35;;;27.00;48.60;;;;;;5033553;28;20048;-69
2022/04/30 11:38:38;;;;;;;3.95;1.67;;;28.70;50.00;;;;;;5033267;28;20040;-70
2022/04/30 11:41:44;;;;;;;5.18;1.85;;;31.20;47.80;;;;;;5033103;28;20049;-73
2022/04/30 11:44:53;;;;;;;4.65;2.38;;;33.80;48.30;;;;;;5033078;28;20511;-70
2022/04/30 11:48:05;;;;;;;2.55;1.80;;;36.20;48.10;;;;;;5032744;28;20388;-70
2022/04/30 11:51:10;;;;;;;2.72;1.83;;;38.10;47.30;;;;;;5033696;28;20056;-70
2022/04/30 11:54:20;;;;;;;2.75;1.80;;;38.80;45.50;;;;;;5009417;28;20052;-72
2022/04/30 11:57:25;;;;;;;2.87;1.70;;;39.00;44.90;;;;;;5020612;28;20037;-72
2022/04/30 12:00:34;;;;;;;2.75;1.48;;;36.10;44.90;;;;;;5021680;28;20053;-72
2022/04/30 12:03:41;;;;;;;2.83;1.60;;;35.80;46.30;;;;;;5033588;28;20491;-72
2022/04/30 12:06:45;;;;;;;5.07;1.52;;;33.40;47.90;;;;;;5032768;28;20041;-72
2022/04/30 12:09:53;;;;;;;1.58;1.30;;;32.90;48.00;;;;;;5032722;28;20499;-70
2022/04/30 12:12:57;;;;;;;2.35;1.42;;;34.30;48.20;;;;;;5032605;28;20048;-73
2022/04/30 12:16:03;;;;;;;5.35;1.50;;;35.90;47.60;;;;;;5032572;28;20048;-73
2022/04/30 12:26:05;;;;;;;1.83;1.20;;;38.30;45.50;;;;;;5032581;28;20052;-69
2022/04/30 12:29:20;;;;;;;4.43;1.65;;;38.20;43.00;;;;;;5021623;28;20053;-73
2022/04/30 12:32:27;;;;;;;3.45;1.30;;;37.60;43.70;;;;;;5033220;28;20105;-72
2022/04/30 12:35:38;;;;;;;3.08;1.23;;;37.60;43.80;;;;;;5032694;28;20191;-71
2022/04/30 12:38:52;;;;;;;3.78;1.60;;;36.30;43.50;;;;;;5021212;28;20048;-69
2022/04/30 12:42:02;;;;;;;3.33;1.20;;;34.50;46.40;;;;;;5032130;28;20052;-74
2022/04/30 12:45:07;;;;;;;4.00;1.80;;;31.30;45.80;;;;;;5031765;28;20032;-72
2022/04/30 12:48:11;;;;;;;4.22;1.90;;;31.20;47.40;;;;;;5031779;28;20499;-72
2022/04/30 12:51:16;;;;;;;3.33;1.50;;;29.90;45.50;;;;;;5031852;28;20514;-71
2022/04/30 12:54:20;;;;;;;2.50;1.83;;;31.00;49.00;;;;;;5031623;28;20413;-73
2022/04/30 12:57:25;;;;;;;4.38;1.80;;;31.30;46.50;;;;;;5029980;28;20048;-72
2022/04/30 13:00:29;;;;;;;7.95;1.98;;;28.30;48.30;;;;;;5031966;28;20044;-72
2022/04/30 13:03:34;;;;;;;6.50;2.00;;;29.20;47.40;;;;;;5032112;28;20037;-71
2022/04/30 13:06:39;;;;;;;4.55;1.55;;;29.30;48.80;;;;;;5031077;28;20048;-73
2022/04/30 13:16:50;;;;;;;3.22;2.00;;;29.10;49.00;;;;;;4950044;29;20550;-68
2022/04/30 13:19:56;;;;;;;2.42;1.70;;;29.70;48.40;;;;;;4950945;29;20151;-68
2022/04/30 13:23:00;;;;;;;6.07;1.98;;;29.80;48.20;;;;;;5031205;28;20040;-69
2022/04/30 13:26:05;;;;;;;1.70;1.55;;;30.10;48.10;;;;;;5031456;28;20494;-72
2022/04/30 13:29:11;;;;;;;3.20;1.75;;;28.30;49.30;;;;;;5031290;28;20048;-72
2022/04/30 13:32:15;;;;;;;3.35;1.88;;;29.30;49.90;;;;;;5032305;28;20048;-72
2022/04/30 13:35:19;;;;;;;3.58;1.88;;;29.80;49.10;;;;;;5032684;28;20048;-72
2022/04/30 13:38:25;;;;;;;3.75;1.60;;;30.10;46.60;;;;;;5031589;28;20052;-72
2022/04/30 13:41:29;;;;;;;3.80;2.10;;;29.50;48.50;;;;;;5031760;28;20049;-68
2022/04/30 13:44:33;;;;;;;5.07;1.60;;;28.20;47.70;;;;;;5032449;28;20041;-68
2022/04/30 13:47:38;;;;;;;6.57;2.95;;;28.50;48.30;;;;;;5031781;28;20040;-68
2022/04/30 13:50:42;;;;;;;3.40;1.50;;;27.60;48.50;;;;;;5031239;28;20045;-68
2022/04/30 13:53:46;;;;;;;3.03;1.70;;;28.30;50.90;;;;;;5032119;28;20103;-68
2022/04/30 13:56:50;;;;;;;2.97;1.42;;;28.60;48.80;;;;;;5031000;28;20040;-68
2022/04/30 13:59:54;;;;;;;2.10;1.60;;;29.10;49.60;;;;;;5031141;28;20057;-72
2022/04/30 14:02:58;;;;;;;5.32;2.22;;;29.50;51.80;;;;;;5030879;28;20542;-72
2022/04/30 14:06:03;;;;;;;3.60;1.85;;;29.40;49.90;;;;;;5030605;28;20041;-71
2022/04/30 14:09:07;;;;;;;3.00;1.60;;;29.70;50.10;;;;;;5030578;28;20048;-72
2022/04/30 14:12:11;;;;;;;3.17;1.92;;;29.80;50.20;;;;;;5030858;28;20044;-72
2022/04/30 14:15:15;;;;;;;4.45;2.08;;;27.80;47.80;;;;;;5031088;28;20053;-72
2022/04/30 14:18:19;;;;;;;2.45;1.75;;;26.90;49.50;;;;;;5030611;28;20065;-72
2022/04/30 14:21:24;;;;;;;3.63;1.80;;;27.60;51.30;;;;;;5030837;28;20048;-73
2022/04/30 14:24:28;;;;;;;4.30;1.73;;;28.00;52.70;;;;;;5031171;28;20052;-72
2022/04/30 14:27:34;;;;;;;4.95;1.70;;;27.40;52.00;;;;;;5029603;28;20057;-72
2022/04/30 14:30:44;;;;;;;4.78;1.65;;;27.80;53.30;;;;;;5030962;28;20048;-72
2022/04/30 14:33:49;;;;;;;8.68;2.50;;;28.00;53.00;;;;;;5031158;28;20107;-72
2022/04/30 14:36:53;;;;;;;3.45;1.73;;;28.00;51.60;;;;;;5030229;28;20065;-72
2022/04/30 14:39:57;;;;;;;6.10;2.88;;;27.50;49.70;;;;;;5030649;28;20412;-73
2022/04/30 14:43:01;;;;;;;5.38;1.85;;;27.50;52.60;;;;;;5030872;28;20061;-72
2022/04/30 14:46:06;;;;;;;61.10;6.35;;;27.70;51.10;;;;;;5030772;28;20045;-72
2022/04/30 14:49:09;;;;;;;4.80;2.08;;;27.40;51.30;;;;;;5031018;28;20483;-73
2022/04/30 14:52:19;;;;;;;3.97;1.98;;;27.50;51.40;;;;;;5031254;28;20057;-72
2022/04/30 14:55:23;;;;;;;13.20;3.10;;;27.50;50.40;;;;;;5031130;28;20468;-72
2022/04/30 14:58:27;;;;;;;7.78;2.00;;;27.50;52.20;;;;;;5030851;28;20048;-71
2022/04/30 15:01:31;;;;;;;3.28;2.08;;;27.50;53.10;;;;;;5031106;28;20483;-73
2022/04/30 15:04:36;;;;;;;2.40;1.80;;;27.30;52.10;;;;;;5030957;28;20049;-71
2022/04/30 15:07:40;;;;;;;4.75;2.10;;;27.10;53.10;;;;;;5030411;28;20049;-71
2022/04/30 15:10:44;;;;;;;3.70;1.88;;;27.10;52.40;;;;;;5030609;28;20064;-73
2022/04/30 15:13:48;;;;;;;4.15;1.92;;;26.90;51.40;;;;;;5030942;28;20048;-73
2022/04/30 15:16:52;;;;;;;5.80;2.42;;;26.90;51.20;;;;;;5029497;28;20072;-72
2022/04/30 15:19:59;;;;;;;2.28;1.55;;;26.90;51.00;;;;;;5031058;28;20771;-72
2022/04/30 15:23:03;;;;;;;4.13;2.30;;;26.80;52.20;;;;;;5033698;28;20048;-72
2022/04/30 15:26:07;;;;;;;3.33;2.10;;;26.60;50.80;;;;;;5033278;28;20403;-73
2022/04/30 15:29:11;;;;;;;3.58;1.90;;;26.10;54.30;;;;;;5033686;28;20052;-73
2022/04/30 15:32:15;;;;;;;3.85;1.90;;;25.50;53.60;;;;;;5033784;28;20056;-74
2022/04/30 15:35:19;;;;;;;7.93;2.47;;;25.40;56.10;;;;;;5033848;28;20061;-73
2022/04/30 15:38:23;;;;;;;4.38;2.47;;;25.10;55.50;;;;;;5033118;28;20052;-74
2022/04/30 15:41:27;;;;;;;17.38;4.50;;;25.30;54.80;;;;;;5033215;28;20048;-72
2022/04/30 15:44:31;;;;;;;6.57;2.15;;;25.40;56.60;;;;;;5033747;28;20479;-72
2022/04/30 15:54:21;;;;;;;3.70;2.05;;;24.60;56.00;;;;;;5033555;28;20053;-73
2022/04/30 15:57:25;;;;;;;2.95;1.70;;;24.70;55.50;;;;;;5032945;28;20053;-74
2022/04/30 16:00:29;;;;;;;5.32;1.73;;;24.60;55.80;;;;;;5033275;28;20056;-74
2022/04/30 16:03:34;;;;;;;3.22;1.90;;;24.60;55.10;;;;;;5033544;28;20048;-74
2022/04/30 16:06:38;;;;;;;4.45;2.00;;;24.60;55.40;;;;;;5032663;28;20117;-73
2022/04/30 16:09:43;;;;;;;3.83;1.77;;;24.60;54.70;;;;;;5033209;28;20045;-73
2022/04/30 16:12:48;;;;;;;4.18;1.75;;;24.50;56.40;;;;;;5033116;28;20053;-74
2022/04/30 16:15:52;;;;;;;3.65;2.05;;;24.40;56.50;;;;;;5033178;28;20052;-72
2022/04/30 16:18:57;;;;;;;6.40;1.92;;;24.20;56.60;;;;;;5032816;28;20072;-71
2022/04/30 16:22:07;;;;;;;3.28;1.75;;;24.10;56.40;;;;;;5032253;28;20048;-73
2022/04/30 16:25:11;;;;;;;4.28;1.98;;;23.90;56.40;;;;;;5031117;28;20491;-72
2022/04/30 16:28:15;;;;;;;3.05;1.83;;;23.80;56.80;;;;;;5031204;28;20048;-74
2022/04/30 16:31:19;;;;;;;3.10;2.00;;;23.60;56.90;;;;;;5032245;28;20055;-72
2022/04/30 16:34:23;;;;;;;3.38;1.75;;;23.30;57.70;;;;;;5032786;28;20045;-73
2022/04/30 16:37:26;;;;;;;5.93;1.90;;;23.10;58.90;;;;;;5031775;28;20033;-73
2022/04/30 16:40:31;;;;;;;2.97;2.00;;;23.10;59.30;;;;;;5032142;28;20052;-73
2022/04/30 16:43:35;;;;;;;5.03;2.42;;;23.00;59.50;;;;;;5032458;28;20499;-73
2022/04/30 16:46:40;;;;;;;2.60;1.90;;;22.90;59.20;;;;;;5031728;28;20384;-73
2022/04/30 16:49:44;;;;;;;3.05;2.20;;;22.90;60.10;;;;;;5031589;28;20045;-73
2022/04/30 16:52:48;;;;;;;4.70;2.15;;;22.80;60.10;;;;;;5031333;28;20064;-73
2022/04/30 16:59:15;;;;;;;3.42;2.15;;;22.50;60.40;;;;;;5031356;28;20048;-73
2022/04/30 17:02:19;;;;;;;5.88;2.40;;;22.40;60.30;;;;;;5031194;28;20048;-73
2022/04/30 17:05:25;;;;;;;4.00;2.42;;;22.30;61.00;;;;;;5031259;28;20044;-73
2022/04/30 17:08:28;;;;;;;7.10;2.33;;;22.10;61.20;;;;;;5031073;28;20061;-73